Time;durP1;ratioP1;P1;durP2;ratioP2;P2;SDS_P1;SDS_P2;PMS_P1;PMS_P2;Temp;Humidity;BMP_temperature;BMP_pressure;BME280_temperature;BME280_humidity;BME280_pressure;Samples;Min_cycle;Max_cycle;Signal;HPM_P1;HPM_P2
2023/11/27 00:02:08;;;;;;;1.70;1.45;;;;;;;;;;5048057;28;20097;-78
2023/11/27 00:04:35;;;;;;;2.30;1.13;;;;;;;;;;5048220;28;20036;-76
2023/11/27 00:07:01;;;;;;;1.35;0.90;;;;;;;;;;5051776;28;20045;-78
2023/11/27 00:09:27;;;;;;;2.05;1.23;;;;;;;;;;5057588;28;20029;-76
2023/11/27 00:11:53;;;;;;;0.73;0.70;;;;;;;;;;5061453;28;20048;-77
2023/11/27 00:14:19;;;;;;;1.98;1.05;;;;;;;;;;5062091;28;20021;-78
2023/11/27 00:16:45;;;;;;;1.52;1.20;;;;;;;;;;5044293;28;20017;-78
2023/11/27 00:19:11;;;;;;;1.25;0.95;;;;;;;;;;5040488;28;20053;-78
2023/11/27 00:21:39;;;;;;;1.65;0.80;;;;;;;;;;5039291;28;20037;-79
2023/11/27 00:24:05;;;;;;;1.15;1.00;;;;;;;;;;5039513;28;20040;-79
2023/11/27 00:26:31;;;;;;;0.70;0.70;;;;;;;;;;5039455;28;20044;-79
2023/11/27 00:28:57;;;;;;;0.98;0.85;;;;;;;;;;5039033;28;20422;-79
2023/11/27 00:31:24;;;;;;;0.63;0.63;;;;;;;;;;5039015;28;20040;-78
2023/11/27 00:33:50;;;;;;;1.55;0.93;;;;;;;;;;5039313;28;20021;-78
2023/11/27 00:36:17;;;;;;;0.50;0.50;;;;;;;;;;5038046;28;20071;-79
2023/11/27 00:38:43;;;;;;;1.02;0.60;;;;;;;;;;5038864;28;20033;-77
2023/11/27 00:41:14;;;;;;;0.70;0.70;;;;;;;;;;5043567;28;20025;-77
2023/11/27 00:43:43;;;;;;;0.73;0.60;;;;;;;;;;5052354;28;20030;-77
2023/11/27 00:46:10;;;;;;;1.33;0.95;;;;;;;;;;5039276;28;20048;-76
2023/11/27 00:48:36;;;;;;;0.80;0.80;;;;;;;;;;5039624;28;20034;-77
2023/11/27 00:51:03;;;;;;;2.08;1.10;;;;;;;;;;5039155;28;20420;-79
2023/11/27 00:53:29;;;;;;;1.23;0.80;;;;;;;;;;5039168;28;20060;-78
2023/11/27 00:55:55;;;;;;;0.70;0.50;;;;;;;;;;5039546;28;20013;-78
2023/11/27 00:58:21;;;;;;;0.82;0.75;;;;;;;;;;5038914;28;20488;-76
2023/11/27 01:00:47;;;;;;;0.73;0.73;;;;;;;;;;5039441;28;20558;-76
2023/11/27 01:03:13;;;;;;;0.75;0.75;;;;;;;;;;5039012;28;20516;-77
2023/11/27 01:05:39;;;;;;;0.75;0.70;;;;;;;;;;5038161;28;20079;-76
2023/11/27 01:08:05;;;;;;;2.13;1.27;;;;;;;;;;5035564;28;20083;-77
2023/11/27 01:10:32;;;;;;;1.10;1.00;;;;;;;;;;5037793;28;20029;-75
2023/11/27 01:12:58;;;;;;;0.90;0.70;;;;;;;;;;5055842;28;20044;-76
2023/11/27 01:15:25;;;;;;;1.50;1.20;;;;;;;;;;5041033;28;20010;-77
2023/11/27 01:17:53;;;;;;;0.75;0.50;;;;;;;;;;5039396;28;20060;-76
2023/11/27 01:20:19;;;;;;;2.33;0.95;;;;;;;;;;5039593;28;20135;-78
2023/11/27 01:22:45;;;;;;;2.00;1.20;;;;;;;;;;5038801;28;20064;-77
2023/11/27 01:25:11;;;;;;;1.42;0.85;;;;;;;;;;5040214;28;20047;-79
2023/11/27 01:27:38;;;;;;;1.45;1.02;;;;;;;;;;5038982;28;20034;-77
2023/11/27 01:30:05;;;;;;;1.90;0.80;;;;;;;;;;5039369;28;20105;-79
2023/11/27 01:32:31;;;;;;;1.23;0.85;;;;;;;;;;5046638;28;20042;-75
2023/11/27 01:34:57;;;;;;;1.70;1.10;;;;;;;;;;5056180;28;20034;-79
2023/11/27 01:37:23;;;;;;;0.90;0.80;;;;;;;;;;5039648;28;20017;-78
2023/11/27 01:39:50;;;;;;;0.90;0.90;;;;;;;;;;5037705;28;20032;-78
2023/11/27 01:42:16;;;;;;;2.67;1.13;;;;;;;;;;5053304;28;20081;-79
2023/11/27 01:44:42;;;;;;;1.00;0.80;;;;;;;;;;5040566;28;20025;-77
2023/11/27 01:47:09;;;;;;;1.00;0.75;;;;;;;;;;5033116;28;20022;-78
2023/11/27 01:49:35;;;;;;;4.03;1.40;;;;;;;;;;5032960;28;20021;-77
2023/11/27 01:52:02;;;;;;;1.20;1.10;;;;;;;;;;5032558;28;20056;-77
2023/11/27 01:54:28;;;;;;;0.80;0.70;;;;;;;;;;5034556;28;20029;-76
2023/11/27 01:56:55;;;;;;;1.27;0.70;;;;;;;;;;5033399;28;20048;-78
2023/11/27 01:59:23;;;;;;;0.60;0.60;;;;;;;;;;5032553;28;20527;-78
2023/11/27 02:01:49;;;;;;;0.40;0.40;;;;;;;;;;5032733;28;20105;-77
2023/11/27 02:04:15;;;;;;;1.42;0.82;;;;;;;;;;5032413;28;20463;-78
2023/11/27 02:06:42;;;;;;;1.58;0.98;;;;;;;;;;5034359;28;20021;-77
2023/11/27 02:09:08;;;;;;;1.58;0.80;;;;;;;;;;5031026;28;20033;-76
2023/11/27 02:11:42;;;;;;;2.05;0.75;;;;;;;;;;5032495;28;20026;-76
2023/11/27 02:14:08;;;;;;;0.90;0.60;;;;;;;;;;5032991;28;20523;-78
2023/11/27 02:16:35;;;;;;;1.05;0.95;;;;;;;;;;5031581;28;20109;-78
2023/11/27 02:19:01;;;;;;;0.82;0.65;;;;;;;;;;5032784;28;20036;-79
2023/11/27 02:21:27;;;;;;;0.90;0.90;;;;;;;;;;5031251;28;20029;-77
2023/11/27 02:23:53;;;;;;;0.50;0.50;;;;;;;;;;5032845;28;20033;-79
2023/11/27 02:26:19;;;;;;;1.52;0.88;;;;;;;;;;5033085;28;20040;-79
2023/11/27 02:28:45;;;;;;;0.70;0.60;;;;;;;;;;5032188;28;20033;-79
2023/11/27 02:31:11;;;;;;;0.77;0.75;;;;;;;;;;5032403;28;20057;-78
2023/11/27 02:33:41;;;;;;;0.60;0.60;;;;;;;;;;5032225;28;20085;-77
2023/11/27 02:36:07;;;;;;;0.77;0.70;;;;;;;;;;5031288;28;20021;-76
2023/11/27 02:38:33;;;;;;;0.85;0.63;;;;;;;;;;5032564;28;20026;-78
2023/11/27 02:40:59;;;;;;;0.85;0.65;;;;;;;;;;5032589;28;20030;-78
2023/11/27 02:43:26;;;;;;;0.95;0.75;;;;;;;;;;5050993;28;20013;-81
2023/11/27 02:45:52;;;;;;;0.57;0.57;;;;;;;;;;5042200;28;20415;-78
2023/11/27 02:48:18;;;;;;;0.80;0.50;;;;;;;;;;5031087;28;20025;-77
2023/11/27 02:50:44;;;;;;;1.05;0.82;;;;;;;;;;5032489;28;20033;-78
2023/11/27 02:53:10;;;;;;;2.42;0.80;;;;;;;;;;5032303;28;20026;-78
2023/11/27 02:55:36;;;;;;;1.65;0.98;;;;;;;;;;5032558;28;20021;-77
2023/11/27 02:58:02;;;;;;;1.20;0.60;;;;;;;;;;5032675;28;20025;-77
2023/11/27 03:00:28;;;;;;;0.52;0.40;;;;;;;;;;5033596;28;20018;-76
2023/11/27 03:02:54;;;;;;;0.98;0.63;;;;;;;;;;5034335;28;20041;-77
2023/11/27 03:05:20;;;;;;;0.47;0.47;;;;;;;;;;5041157;28;20029;-77
2023/11/27 03:07:47;;;;;;;0.93;0.60;;;;;;;;;;5040602;28;20037;-76
2023/11/27 03:10:13;;;;;;;0.68;0.60;;;;;;;;;;5037494;28;20048;-77
2023/11/27 03:12:39;;;;;;;0.85;0.70;;;;;;;;;;5049394;28;20041;-77
2023/11/27 03:15:05;;;;;;;1.42;0.60;;;;;;;;;;5044484;28;20026;-77
2023/11/27 03:17:31;;;;;;;0.50;0.50;;;;;;;;;;5036515;28;20052;-77
2023/11/27 03:19:57;;;;;;;1.15;0.52;;;;;;;;;;5045741;28;20033;-77
2023/11/27 03:22:24;;;;;;;0.98;0.52;;;;;;;;;;5047357;28;20095;-77
2023/11/27 03:24:50;;;;;;;0.73;0.50;;;;;;;;;;5035902;28;20019;-79
2023/11/27 03:27:16;;;;;;;0.73;0.68;;;;;;;;;;5035810;28;20037;-80
2023/11/27 03:29:42;;;;;;;1.75;0.60;;;;;;;;;;5035949;28;20041;-79
2023/11/27 03:32:08;;;;;;;0.68;0.40;;;;;;;;;;5036018;28;20029;-78
2023/11/27 03:34:34;;;;;;;0.77;0.60;;;;;;;;;;5034810;28;20018;-78
2023/11/27 03:37:00;;;;;;;0.40;0.40;;;;;;;;;;5036192;28;20029;-77
2023/11/27 03:39:27;;;;;;;0.82;0.40;;;;;;;;;;5035783;28;20037;-77
2023/11/27 03:41:53;;;;;;;0.65;0.52;;;;;;;;;;5036149;28;20461;-78
2023/11/27 03:44:19;;;;;;;0.30;0.30;;;;;;;;;;5041762;28;20082;-78
2023/11/27 03:46:45;;;;;;;0.60;0.47;;;;;;;;;;5034112;28;20054;-77
2023/11/27 03:49:12;;;;;;;0.57;0.50;;;;;;;;;;5016482;28;20074;-77
2023/11/27 03:51:38;;;;;;;0.30;0.30;;;;;;;;;;5044138;28;20057;-76
2023/11/27 03:54:05;;;;;;;0.70;0.57;;;;;;;;;;5053379;28;20032;-76
2023/11/27 03:56:31;;;;;;;1.05;0.70;;;;;;;;;;5052689;28;20013;-75
2023/11/27 03:58:57;;;;;;;0.43;0.43;;;;;;;;;;5053960;28;20039;-76
2023/11/27 04:01:23;;;;;;;1.80;0.40;;;;;;;;;;5053882;28;20037;-75
2023/11/27 04:03:49;;;;;;;1.30;0.47;;;;;;;;;;5054386;28;20026;-76
2023/11/27 04:06:22;;;;;;;0.52;0.40;;;;;;;;;;5052062;28;20039;-77
2023/11/27 04:08:48;;;;;;;0.55;0.50;;;;;;;;;;5047597;28;20041;-76
2023/11/27 04:11:15;;;;;;;0.82;0.45;;;;;;;;;;5063627;28;20033;-76
2023/11/27 04:13:41;;;;;;;0.85;0.68;;;;;;;;;;5061340;28;20025;-74
2023/11/27 04:16:09;;;;;;;0.30;0.30;;;;;;;;;;5053813;28;20131;-77
2023/11/27 04:18:35;;;;;;;1.25;0.80;;;;;;;;;;5056289;28;20085;-77
2023/11/27 04:21:02;;;;;;;0.30;0.30;;;;;;;;;;5054004;28;20030;-77
2023/11/27 04:23:28;;;;;;;0.85;0.40;;;;;;;;;;5047149;28;20128;-78
2023/11/27 04:25:54;;;;;;;0.70;0.30;;;;;;;;;;5040336;28;20029;-77
2023/11/27 04:28:20;;;;;;;0.43;0.30;;;;;;;;;;5044845;28;20029;-77
2023/11/27 04:30:46;;;;;;;0.30;0.30;;;;;;;;;;5038222;28;20044;-79
2023/11/27 04:33:14;;;;;;;0.52;0.30;;;;;;;;;;5042760;28;20443;-79
2023/11/27 04:35:41;;;;;;;0.70;0.25;;;;;;;;;;5055331;28;20017;-77
2023/11/27 04:38:36;;;;;;;0.30;0.30;;;;;;;;;;5050545;28;20045;-77
2023/11/27 04:41:02;;;;;;;0.30;0.30;;;;;;;;;;5039550;28;20028;-77
2023/11/27 04:43:28;;;;;;;0.50;0.38;;;;;;;;;;5039059;28;20083;-80
2023/11/27 04:45:55;;;;;;;0.40;0.30;;;;;;;;;;5028466;28;20037;-79
2023/11/27 04:48:21;;;;;;;0.20;0.20;;;;;;;;;;5042433;28;20024;-77
2023/11/27 04:50:48;;;;;;;0.60;0.40;;;;;;;;;;5051123;28;20491;-79
2023/11/27 04:53:14;;;;;;;0.55;0.30;;;;;;;;;;5033751;28;20044;-78
2023/11/27 04:55:40;;;;;;;0.35;0.30;;;;;;;;;;5034365;28;20434;-78
2023/11/27 04:58:07;;;;;;;0.30;0.30;;;;;;;;;;5029881;28;20104;-77
2023/11/27 05:00:33;;;;;;;0.90;0.35;;;;;;;;;;5035351;28;20104;-78
2023/11/27 05:03:00;;;;;;;0.25;0.20;;;;;;;;;;5045000;28;20030;-76
2023/11/27 05:05:26;;;;;;;0.10;0.10;;;;;;;;;;5042241;28;20049;-77
2023/11/27 05:07:52;;;;;;;0.10;0.10;;;;;;;;;;5036412;28;20083;-77
2023/11/27 05:10:19;;;;;;;0.30;0.30;;;;;;;;;;5030370;28;20041;-78
2023/11/27 05:12:45;;;;;;;0.28;0.28;;;;;;;;;;5033052;28;20052;-78
2023/11/27 05:15:11;;;;;;;0.40;0.30;;;;;;;;;;5034273;28;20014;-78
2023/11/27 05:17:37;;;;;;;0.30;0.30;;;;;;;;;;5022707;28;20404;-78
2023/11/27 05:20:04;;;;;;;0.43;0.20;;;;;;;;;;5034639;28;20017;-76
2023/11/27 05:22:30;;;;;;;0.22;0.22;;;;;;;;;;5042222;28;20172;-77
2023/11/27 05:24:56;;;;;;;0.10;0.10;;;;;;;;;;5042162;28;20081;-80
2023/11/27 05:27:23;;;;;;;0.50;0.22;;;;;;;;;;5033544;28;20048;-80
2023/11/27 05:29:49;;;;;;;0.30;0.30;;;;;;;;;;5032774;28;20033;-79
2023/11/27 05:32:16;;;;;;;1.15;0.30;;;;;;;;;;5032515;28;20052;-78
2023/11/27 05:34:43;;;;;;;0.85;0.82;;;;;;;;;;5034024;28;20102;-79
2023/11/27 05:37:09;;;;;;;0.30;0.30;;;;;;;;;;5032248;28;20021;-78
2023/11/27 05:39:35;;;;;;;0.40;0.22;;;;;;;;;;5033493;28;20025;-78
2023/11/27 05:42:05;;;;;;;0.65;0.30;;;;;;;;;;5033313;28;20014;-77
2023/11/27 05:44:31;;;;;;;0.70;0.38;;;;;;;;;;5025525;28;20092;-79
2023/11/27 05:46:57;;;;;;;0.57;0.32;;;;;;;;;;5039500;28;20028;-80
2023/11/27 05:49:23;;;;;;;0.25;0.25;;;;;;;;;;5044527;28;20025;-77
2023/11/27 05:51:51;;;;;;;0.10;0.10;;;;;;;;;;5035890;28;20089;-77
2023/11/27 05:54:17;;;;;;;0.28;0.28;;;;;;;;;;5034628;28;20028;-79
2023/11/27 05:56:43;;;;;;;0.73;0.28;;;;;;;;;;5045871;28;20033;-79
2023/11/27 05:59:09;;;;;;;0.77;0.50;;;;;;;;;;5042790;28;20097;-78
2023/11/27 06:01:35;;;;;;;0.32;0.25;;;;;;;;;;5035477;28;20154;-77
2023/11/27 06:04:02;;;;;;;0.93;0.20;;;;;;;;;;5048720;28;20030;-78
2023/11/27 06:06:28;;;;;;;1.50;0.40;;;;;;;;;;5033388;28;20029;-78
2023/11/27 06:08:55;;;;;;;0.65;0.40;;;;;;;;;;5033226;28;20033;-77
2023/11/27 06:11:21;;;;;;;0.45;0.30;;;;;;;;;;5030107;28;20036;-77
2023/11/27 06:13:48;;;;;;;0.25;0.25;;;;;;;;;;5043885;28;20079;-77
2023/11/27 06:16:14;;;;;;;0.55;0.30;;;;;;;;;;5034711;28;20041;-77
2023/11/27 06:18:40;;;;;;;0.28;0.20;;;;;;;;;;5033924;28;20383;-77
2023/11/27 06:21:07;;;;;;;0.20;0.20;;;;;;;;;;5029339;28;20101;-77
2023/11/27 06:23:33;;;;;;;1.00;0.40;;;;;;;;;;5032128;28;20034;-77
2023/11/27 06:26:01;;;;;;;1.13;0.30;;;;;;;;;;5034924;28;20077;-77
2023/11/27 06:28:27;;;;;;;0.25;0.10;;;;;;;;;;5034363;28;20021;-77
2023/11/27 06:30:54;;;;;;;0.10;0.10;;;;;;;;;;5039832;28;20048;-78
2023/11/27 06:33:20;;;;;;;0.35;0.17;;;;;;;;;;5035692;28;20025;-78
2023/11/27 06:35:48;;;;;;;0.10;0.10;;;;;;;;;;5053806;28;20039;-79
2023/11/27 06:38:17;;;;;;;0.15;0.15;;;;;;;;;;5038087;28;20109;-79
2023/11/27 06:40:43;;;;;;;0.20;0.20;;;;;;;;;;5038021;28;20025;-80
2023/11/27 06:43:10;;;;;;;0.38;0.30;;;;;;;;;;5033454;28;20022;-78
2023/11/27 06:45:36;;;;;;;0.40;0.40;;;;;;;;;;5020456;28;20025;-78
2023/11/27 06:48:03;;;;;;;0.75;0.60;;;;;;;;;;5017959;28;20033;-78
2023/11/27 06:50:29;;;;;;;0.30;0.22;;;;;;;;;;5035643;28;20018;-78
2023/11/27 06:52:56;;;;;;;0.40;0.38;;;;;;;;;;5047208;28;20049;-78
2023/11/27 06:55:22;;;;;;;0.32;0.32;;;;;;;;;;5054698;28;20480;-77
2023/11/27 06:57:49;;;;;;;0.20;0.20;;;;;;;;;;5055649;28;20128;-77
2023/11/27 07:00:17;;;;;;;0.20;0.20;;;;;;;;;;5049086;28;20021;-76
2023/11/27 07:02:44;;;;;;;0.32;0.20;;;;;;;;;;5043320;28;20048;-76
2023/11/27 07:05:11;;;;;;;0.30;0.30;;;;;;;;;;5046674;28;20071;-76
2023/11/27 07:07:38;;;;;;;0.30;0.30;;;;;;;;;;5043600;28;20032;-77
2023/11/27 07:10:04;;;;;;;0.20;0.20;;;;;;;;;;5039162;28;20071;-76
2023/11/27 07:12:32;;;;;;;0.40;0.30;;;;;;;;;;5048463;28;20016;-78
2023/11/27 07:14:58;;;;;;;0.35;0.35;;;;;;;;;;5037355;28;20483;-77
2023/11/27 07:17:25;;;;;;;0.50;0.43;;;;;;;;;;5045598;28;20032;-79
2023/11/27 07:19:51;;;;;;;0.47;0.47;;;;;;;;;;5030191;28;20056;-77
2023/11/27 07:22:17;;;;;;;0.63;0.50;;;;;;;;;;5041620;28;20029;-77
2023/11/27 07:24:43;;;;;;;0.47;0.40;;;;;;;;;;5037952;28;20116;-78
2023/11/27 07:27:09;;;;;;;0.47;0.47;;;;;;;;;;5036353;28;20480;-78
2023/11/27 07:29:35;;;;;;;0.38;0.38;;;;;;;;;;5037084;28;20029;-78
2023/11/27 07:32:01;;;;;;;0.20;0.20;;;;;;;;;;5036036;28;20017;-77
2023/11/27 07:34:29;;;;;;;0.38;0.38;;;;;;;;;;5042742;28;20014;-78
2023/11/27 07:36:55;;;;;;;0.40;0.40;;;;;;;;;;5037072;28;20056;-79
2023/11/27 07:39:22;;;;;;;0.60;0.50;;;;;;;;;;5042746;28;20539;-78
2023/11/27 07:41:48;;;;;;;0.20;0.20;;;;;;;;;;5046912;28;20025;-76
2023/11/27 07:44:17;;;;;;;0.25;0.25;;;;;;;;;;5052560;22;20400;-78
2023/11/27 07:46:46;;;;;;;0.30;0.30;;;;;;;;;;5028115;28;20091;-78
2023/11/27 07:49:13;;;;;;;0.38;0.30;;;;;;;;;;5026079;28;20021;-78
2023/11/27 07:51:39;;;;;;;0.20;0.20;;;;;;;;;;5034235;28;20018;-78
2023/11/27 07:54:06;;;;;;;1.20;0.30;;;;;;;;;;5037880;28;20002;-78
2023/11/27 07:56:35;;;;;;;1.25;0.40;;;;;;;;;;5032393;28;20025;-79
2023/11/27 07:59:01;;;;;;;0.55;0.43;;;;;;;;;;5026899;28;20021;-78
2023/11/27 08:01:27;;;;;;;0.40;0.40;;;;;;;;;;5030012;28;20053;-78
2023/11/27 08:03:53;;;;;;;0.57;0.30;;;;;;;;;;5028300;28;20056;-78
2023/11/27 08:06:20;;;;;;;0.35;0.35;;;;;;;;;;5026373;28;20025;-79
2023/11/27 08:08:47;;;;;;;0.52;0.40;;;;;;;;;;5031591;28;20026;-79
2023/11/27 08:11:13;;;;;;;0.90;0.50;;;;;;;;;;5035741;28;20014;-79
2023/11/27 08:13:43;;;;;;;0.28;0.28;;;;;;;;;;5041676;28;20025;-79
2023/11/27 08:16:09;;;;;;;0.30;0.30;;;;;;;;;;5032021;28;20022;-81
2023/11/27 08:18:38;;;;;;;0.40;0.40;;;;;;;;;;5027418;28;20049;-81
2023/11/27 08:21:05;;;;;;;0.57;0.57;;;;;;;;;;5027768;28;20108;-79
2023/11/27 08:23:31;;;;;;;0.70;0.57;;;;;;;;;;5028720;28;20185;-80
2023/11/27 08:25:57;;;;;;;0.38;0.38;;;;;;;;;;5023887;28;20456;-81
2023/11/27 08:28:24;;;;;;;0.70;0.43;;;;;;;;;;5028388;28;20072;-80
2023/11/27 08:30:51;;;;;;;1.20;0.50;;;;;;;;;;5029785;28;20034;-81
2023/11/27 08:33:17;;;;;;;0.40;0.40;;;;;;;;;;5034869;28;20014;-80
2023/11/27 08:35:44;;;;;;;1.25;0.50;;;;;;;;;;5035018;28;20468;-79
2023/11/27 08:38:10;;;;;;;0.50;0.45;;;;;;;;;;5036113;28;20026;-79
2023/11/27 08:40:36;;;;;;;1.13;0.50;;;;;;;;;;5036864;28;20013;-80
2023/11/27 08:43:03;;;;;;;0.85;0.77;;;;;;;;;;5037423;28;20053;-80
2023/11/27 08:45:30;;;;;;;0.52;0.52;;;;;;;;;;5043268;28;20022;-80
2023/11/27 08:47:58;;;;;;;0.55;0.55;;;;;;;;;;5035309;28;20100;-79
2023/11/27 08:50:27;;;;;;;0.30;0.30;;;;;;;;;;5030149;28;20077;-78
2023/11/27 08:52:57;;;;;;;1.20;0.57;;;;;;;;;;5034446;28;20084;-79
2023/11/27 08:55:28;;;;;;;2.45;0.70;;;;;;;;;;5021562;28;20018;-79
2023/11/27 08:57:55;;;;;;;0.47;0.43;;;;;;;;;;5022040;28;20014;-77
2023/11/27 09:00:21;;;;;;;0.52;0.40;;;;;;;;;;5027739;28;20060;-79
2023/11/27 09:02:48;;;;;;;0.32;0.32;;;;;;;;;;5030593;28;20042;-80
2023/11/27 09:05:14;;;;;;;1.02;0.50;;;;;;;;;;5028742;28;20044;-78
2023/11/27 09:07:40;;;;;;;1.38;0.90;;;;;;;;;;5025644;28;20026;-78
2023/11/27 09:10:07;;;;;;;1.45;1.08;;;;;;;;;;5023783;28;20017;-78
2023/11/27 09:12:34;;;;;;;2.80;1.25;;;;;;;;;;5020989;28;20034;-78
2023/11/27 09:15:00;;;;;;;1.23;0.95;;;;;;;;;;5024381;28;20026;-78
2023/11/27 09:17:27;;;;;;;0.57;0.57;;;;;;;;;;5028060;28;20041;-78
2023/11/27 09:19:53;;;;;;;1.55;0.70;;;;;;;;;;5033390;28;20022;-78
2023/11/27 09:22:22;;;;;;;0.68;0.60;;;;;;;;;;5031430;28;20052;-78
2023/11/27 09:24:49;;;;;;;1.27;0.55;;;;;;;;;;5018435;28;20085;-79
2023/11/27 09:27:15;;;;;;;1.05;0.90;;;;;;;;;;5023629;28;20083;-79
2023/11/27 09:29:41;;;;;;;0.93;0.68;;;;;;;;;;5024074;28;20118;-79
2023/11/27 09:32:07;;;;;;;0.77;0.68;;;;;;;;;;5022698;28;20057;-78
2023/11/27 09:34:34;;;;;;;1.23;0.50;;;;;;;;;;5028705;28;20034;-79
2023/11/27 09:37:00;;;;;;;0.73;0.73;;;;;;;;;;5016680;28;20109;-78
2023/11/27 09:39:27;;;;;;;0.50;0.50;;;;;;;;;;5024459;28;20022;-80
2023/11/27 09:41:54;;;;;;;2.08;0.52;;;;;;;;;;5044353;28;20009;-79
2023/11/27 09:44:20;;;;;;;0.63;0.40;;;;;;;;;;5034488;28;20053;-79
2023/11/27 09:46:47;;;;;;;0.60;0.40;;;;;;;;;;5033472;28;20036;-81
2023/11/27 09:49:20;;;;;;;1.08;0.50;;;;;;;;;;5035715;28;20014;-80
2023/11/27 09:51:49;;;;;;;0.98;0.40;;;;;;;;;;5035245;28;20056;-80
2023/11/27 09:54:17;;;;;;;0.43;0.43;;;;;;;;;;5030133;28;20498;-80
2023/11/27 09:56:44;;;;;;;0.60;0.60;;;;;;;;;;5032865;28;20025;-79
2023/11/27 09:59:11;;;;;;;1.48;0.47;;;;;;;;;;5030860;28;20028;-80
2023/11/27 10:01:39;;;;;;;2.40;0.50;;;;;;;;;;5030341;28;20061;-79
2023/11/27 10:04:08;;;;;;;0.98;0.70;;;;;;;;;;5029004;28;20504;-80
2023/11/27 10:06:35;;;;;;;0.47;0.30;;;;;;;;;;5023225;28;20041;-80
2023/11/27 10:09:07;;;;;;;0.32;0.30;;;;;;;;;;5019573;28;20113;-79
2023/11/27 10:11:34;;;;;;;1.02;0.40;;;;;;;;;;5024232;28;20033;-80
2023/11/27 10:14:10;;;;;;;0.98;0.55;;;;;;;;;;5032650;28;20030;-80
2023/11/27 10:16:36;;;;;;;1.63;0.50;;;;;;;;;;5027017;28;20049;-80
2023/11/27 10:19:06;;;;;;;1.17;0.63;;;;;;;;;;5025443;28;20543;-81
2023/11/27 10:21:42;;;;;;;1.45;0.40;;;;;;;;;;5025865;28;20036;-83
2023/11/27 10:24:10;;;;;;;0.60;0.60;;;;;;;;;;5017283;28;20033;-80
2023/11/27 10:26:43;;;;;;;1.88;0.60;;;;;;;;;;5026181;28;20026;-82
2023/11/27 10:29:11;;;;;;;0.60;0.45;;;;;;;;;;5023126;28;20022;-79
2023/11/27 10:31:37;;;;;;;0.75;0.60;;;;;;;;;;5025876;28;20084;-83
2023/11/27 10:34:08;;;;;;;1.55;0.60;;;;;;;;;;5033926;28;20018;-79
2023/11/27 10:36:35;;;;;;;1.35;0.70;;;;;;;;;;5025351;28;20052;-80
2023/11/27 10:39:14;;;;;;;0.63;0.40;;;;;;;;;;5017625;28;20026;-81
2023/11/27 10:41:43;;;;;;;1.85;0.52;;;;;;;;;;5026981;28;20407;-80
2023/11/27 10:44:09;;;;;;;0.77;0.60;;;;;;;;;;5040954;28;20040;-81
2023/11/27 10:46:35;;;;;;;0.50;0.50;;;;;;;;;;5026118;28;20018;-80
2023/11/27 10:49:01;;;;;;;0.70;0.30;;;;;;;;;;5023639;28;20110;-80
2023/11/27 10:51:31;;;;;;;0.45;0.40;;;;;;;;;;5024108;28;20045;-81
2023/11/27 10:53:59;;;;;;;0.60;0.50;;;;;;;;;;5030496;28;20068;-82
2023/11/27 10:56:27;;;;;;;0.65;0.55;;;;;;;;;;5028948;28;20026;-82
2023/11/27 10:58:55;;;;;;;0.73;0.47;;;;;;;;;;5031276;28;20041;-81
2023/11/27 11:01:24;;;;;;;1.10;0.63;;;;;;;;;;5032082;28;20010;-80
2023/11/27 11:03:54;;;;;;;0.40;0.30;;;;;;;;;;5032449;28;20022;-81
2023/11/27 11:06:21;;;;;;;0.43;0.40;;;;;;;;;;5032252;28;20018;-80
2023/11/27 11:08:49;;;;;;;1.13;0.45;;;;;;;;;;5033265;28;20036;-81
2023/11/27 11:11:15;;;;;;;0.95;0.60;;;;;;;;;;5051590;28;20041;-81
2023/11/27 11:13:42;;;;;;;0.80;0.40;;;;;;;;;;5040714;28;20026;-80
2023/11/27 11:16:13;;;;;;;0.95;0.40;;;;;;;;;;5031893;28;20022;-80
2023/11/27 11:18:46;;;;;;;0.63;0.40;;;;;;;;;;5032714;28;20101;-80
2023/11/27 11:21:31;;;;;;;0.60;0.50;;;;;;;;;;5031882;28;20030;-81
2023/11/27 11:24:15;;;;;;;0.50;0.50;;;;;;;;;;5050031;28;20030;-82
2023/11/27 11:26:54;;;;;;;0.30;0.30;;;;;;;;;;5028696;28;20033;-82
2023/11/27 11:29:33;;;;;;;0.30;0.30;;;;;;;;;;5026829;28;20141;-81
2023/11/27 11:32:06;;;;;;;0.40;0.30;;;;;;;;;;5028792;28;20451;-82
2023/11/27 11:34:42;;;;;;;0.30;0.30;;;;;;;;;;5028263;28;20018;-81
2023/11/27 11:37:11;;;;;;;0.93;0.55;;;;;;;;;;5014792;28;20022;-80
2023/11/27 11:39:40;;;;;;;0.40;0.40;;;;;;;;;;5014149;28;20033;-82
2023/11/27 11:42:13;;;;;;;0.43;0.30;;;;;;;;;;5037878;28;20021;-80
2023/11/27 11:44:41;;;;;;;0.43;0.30;;;;;;;;;;5019132;28;20064;-80
2023/11/27 11:47:26;;;;;;;1.90;0.40;;;;;;;;;;5032467;28;20018;-80
2023/11/27 11:50:12;;;;;;;1.17;0.47;;;;;;;;;;5020996;28;20022;-80
2023/11/27 11:52:41;;;;;;;0.40;0.40;;;;;;;;;;5020043;28;20030;-80
2023/11/27 11:55:14;;;;;;;0.35;0.35;;;;;;;;;;5021780;28;20071;-81
2023/11/27 11:57:42;;;;;;;0.80;0.32;;;;;;;;;;5030114;28;20044;-81
2023/11/27 12:00:19;;;;;;;0.95;0.50;;;;;;;;;;5022187;28;20664;-82
2023/11/27 12:02:47;;;;;;;0.38;0.38;;;;;;;;;;5031804;28;20156;-81
2023/11/27 12:05:16;;;;;;;0.57;0.32;;;;;;;;;;5029267;28;20021;-81
2023/11/27 12:07:44;;;;;;;0.32;0.30;;;;;;;;;;5024447;28;20405;-81
2023/11/27 12:10:16;;;;;;;0.32;0.32;;;;;;;;;;5022960;28;20022;-81
2023/11/27 12:12:43;;;;;;;0.40;0.40;;;;;;;;;;5023814;28;20419;-81
2023/11/27 12:15:12;;;;;;;0.55;0.35;;;;;;;;;;5028180;28;20388;-81
2023/11/27 12:17:38;;;;;;;0.50;0.35;;;;;;;;;;5028825;28;20029;-79
2023/11/27 12:20:21;;;;;;;0.52;0.30;;;;;;;;;;5023614;28;20089;-80
2023/11/27 12:22:51;;;;;;;0.20;0.20;;;;;;;;;;5021748;28;20036;-80
2023/11/27 12:25:21;;;;;;;0.20;0.20;;;;;;;;;;5017882;28;20041;-79
2023/11/27 12:27:47;;;;;;;0.20;0.20;;;;;;;;;;5028806;28;20034;-81
2023/11/27 12:30:20;;;;;;;0.65;0.65;;;;;;;;;;5029507;28;20014;-81
2023/11/27 12:32:47;;;;;;;;;;;;;;;;;;5028763;28;20037;-80
2023/11/27 12:35:14;;;;;;;0.82;0.40;;;;;;;;;;5020773;28;19909;-80
2023/11/27 12:37:42;;;;;;;0.32;0.32;;;;;;;;;;5018948;28;20009;-81
2023/11/27 12:40:09;;;;;;;1.00;0.30;;;;;;;;;;5034898;28;20034;-81
2023/11/27 12:42:35;;;;;;;0.20;0.20;;;;;;;;;;5037340;28;20018;-80
2023/11/27 12:45:05;;;;;;;0.65;0.52;;;;;;;;;;5038061;28;20054;-79
2023/11/27 12:47:35;;;;;;;1.15;0.30;;;;;;;;;;5035570;28;20109;-79
2023/11/27 12:50:01;;;;;;;0.20;0.17;;;;;;;;;;5028623;28;20018;-80
2023/11/27 12:52:29;;;;;;;0.28;0.20;;;;;;;;;;5042140;28;20036;-79
2023/11/27 12:54:55;;;;;;;0.57;0.40;;;;;;;;;;5034409;28;20022;-81
2023/11/27 12:57:22;;;;;;;0.30;0.30;;;;;;;;;;5029052;28;20037;-81
2023/11/27 12:59:49;;;;;;;0.40;0.40;;;;;;;;;;5023536;28;20025;-80
2023/11/27 13:02:21;;;;;;;0.45;0.32;;;;;;;;;;5020238;28;20026;-80
2023/11/27 13:04:53;;;;;;;0.25;0.25;;;;;;;;;;5018345;28;20029;-80
2023/11/27 13:07:19;;;;;;;1.33;0.40;;;;;;;;;;5013126;28;20411;-80
2023/11/27 13:09:46;;;;;;;0.90;0.30;;;;;;;;;;5027178;28;20030;-80
2023/11/27 13:12:15;;;;;;;1.25;0.60;;;;;;;;;;5019364;28;20428;-81
2023/11/27 13:14:42;;;;;;;2.03;0.60;;;;;;;;;;5018063;28;20022;-80
2023/11/27 13:17:18;;;;;;;0.35;0.17;;;;;;;;;;5016416;28;20032;-80
2023/11/27 13:19:44;;;;;;;0.38;0.32;;;;;;;;;;5019032;28;20361;-81
2023/11/27 13:22:14;;;;;;;0.43;0.35;;;;;;;;;;5018939;28;20024;-81
2023/11/27 13:24:41;;;;;;;0.57;0.28;;;;;;;;;;5018934;28;20527;-80
2023/11/27 13:27:07;;;;;;;1.73;0.50;;;;;;;;;;5017699;28;20067;-80
2023/11/27 13:29:33;;;;;;;0.40;0.32;;;;;;;;;;5022321;28;20057;-80
2023/11/27 13:32:01;;;;;;;1.85;0.57;;;;;;;;;;5018381;28;20048;-80
2023/11/27 13:34:37;;;;;;;1.20;0.30;;;;;;;;;;5016397;28;20052;-81
2023/11/27 13:37:07;;;;;;;0.70;0.43;;;;;;;;;;5002094;28;20080;-81
2023/11/27 13:39:36;;;;;;;0.50;0.40;;;;;;;;;;5018309;28;20018;-80
2023/11/27 13:42:04;;;;;;;0.30;0.22;;;;;;;;;;5020673;28;20013;-78
2023/11/27 13:44:30;;;;;;;1.17;0.50;;;;;;;;;;4982951;28;1217917;-80
2023/11/27 13:46:57;;;;;;;0.85;0.22;;;;;;;;;;5045448;23;20046;-81
2023/11/27 13:49:25;;;;;;;1.02;0.43;;;;;;;;;;5038447;28;20049;-79
2023/11/27 13:52:00;;;;;;;0.50;0.40;;;;;;;;;;5038424;28;20132;-79
2023/11/27 13:54:27;;;;;;;0.73;0.50;;;;;;;;;;5032883;28;20045;-83
2023/11/27 13:56:58;;;;;;;0.30;0.30;;;;;;;;;;5036734;28;20053;-81
2023/11/27 13:59:34;;;;;;;1.03;0.40;;;;;;;;;;5049701;28;20025;-80
2023/11/27 14:02:01;;;;;;;0.63;0.40;;;;;;;;;;5039208;28;20284;-81
2023/11/27 14:04:27;;;;;;;0.40;0.30;;;;;;;;;;5044335;28;20048;-80
2023/11/27 14:06:54;;;;;;;0.60;0.30;;;;;;;;;;5029111;28;20030;-79
2023/11/27 14:09:54;;;;;;;0.52;0.40;;;;;;;;;;5022526;28;20067;-81
2023/11/27 14:12:10;;;;;;;1.40;0.30;;;;;;;;;;5034724;28;20030;-79
2023/11/27 14:14:37;;;;;;;0.32;0.32;;;;;;;;;;5033829;28;20029;-79
2023/11/27 14:17:19;;;;;;;0.20;0.20;;;;;;;;;;5035170;28;20040;-80
2023/11/27 14:25:49;;;;;;;0.32;0.30;;;;;;;;;;5035415;28;20087;-81
2023/11/27 14:28:30;;;;;;;0.43;0.30;;;;;;;;;;5051863;28;20078;-80
2023/11/27 14:30:57;;;;;;;0.22;0.22;;;;;;;;;;5060430;28;20024;-81
2023/11/27 14:33:24;;;;;;;0.30;0.20;;;;;;;;;;5049375;28;20060;-79
2023/11/27 14:35:53;;;;;;;0.30;0.30;;;;;;;;;;5045373;28;20022;-79
2023/11/27 14:38:20;;;;;;;0.55;0.30;;;;;;;;;;5045998;28;20055;-80
2023/11/27 14:40:47;;;;;;;0.63;0.30;;;;;;;;;;5058648;28;20022;-81
2023/11/27 14:43:14;;;;;;;0.47;0.20;;;;;;;;;;5033618;28;20388;-81
2023/11/27 14:45:48;;;;;;;0.30;0.20;;;;;;;;;;5032621;28;20029;-81
2023/11/27 14:48:14;;;;;;;0.73;0.20;;;;;;;;;;5029601;28;20132;-81
2023/11/27 14:50:41;;;;;;;0.68;0.30;;;;;;;;;;5037108;28;20029;-82
2023/11/27 14:53:07;;;;;;;0.57;0.40;;;;;;;;;;5041825;28;20111;-78